sensor_id;sensor_type;location;lat;lon;timestamp;pressure;altitude;pressure_sealevel;temperature;humidity
10992;BME280;5549;47.028;15.514;2023-07-13T00:01:09;96380.47;;;23.10;55.20
10992;BME280;5549;47.028;15.514;2023-07-13T00:03:38;96376.53;;;23.12;55.05
10992;BME280;5549;47.028;15.514;2023-07-13T00:06:10;96368.72;;;23.11;54.95
10992;BME280;5549;47.028;15.514;2023-07-13T00:08:37;96372.63;;;23.08;54.86
10992;BME280;5549;47.028;15.514;2023-07-13T00:11:05;96372.22;;;23.11;54.80
10992;BME280;5549;47.028;15.514;2023-07-13T00:13:34;96364.19;;;23.04;54.78
10992;BME280;5549;47.028;15.514;2023-07-13T00:16:08;96362.38;;;22.92;55.22
10992;BME280;5549;47.028;15.514;2023-07-13T00:18:38;96356.44;;;22.83;55.73
10992;BME280;5549;47.028;15.514;2023-07-13T00:21:05;96361.56;;;22.78;56.32
10992;BME280;5549;47.028;15.514;2023-07-13T00:23:38;96355.63;;;22.83;56.48
10992;BME280;5549;47.028;15.514;2023-07-13T00:26:09;96343.91;;;22.57;56.71
10992;BME280;5549;47.028;15.514;2023-07-13T00:28:40;96337.31;;;22.53;56.91
10992;BME280;5549;47.028;15.514;2023-07-13T00:31:12;96347.19;;;22.59;56.88
10992;BME280;5549;47.028;15.514;2023-07-13T00:33:40;96352.75;;;22.64;56.49
10992;BME280;5549;47.028;15.514;2023-07-13T00:36:09;96335.44;;;22.54;56.82
10992;BME280;5549;47.028;15.514;2023-07-13T00:38:39;96321.66;;;22.63;56.76
10992;BME280;5549;47.028;15.514;2023-07-13T00:41:07;96305.38;;;22.71;57.68
10992;BME280;5549;47.028;15.514;2023-07-13T00:43:35;96288.75;;;22.56;57.93
10992;BME280;5549;47.028;15.514;2023-07-13T00:46:24;96296.16;;;22.54;57.93
10992;BME280;5549;47.028;15.514;2023-07-13T00:48:58;96313.22;;;22.60;57.62
10992;BME280;5549;47.028;15.514;2023-07-13T00:51:41;96324.53;;;22.68;57.08
10992;BME280;5549;47.028;15.514;2023-07-13T00:54:14;96321.84;;;22.68;57.08
10992;BME280;5549;47.028;15.514;2023-07-13T00:56:44;96283.19;;;22.38;58.02
10992;BME280;5549;47.028;15.514;2023-07-13T00:59:14;96252.59;;;22.14;59.14
10992;BME280;5549;47.028;15.514;2023-07-13T01:01:44;96263.50;;;21.80;59.99
10992;BME280;5549;47.028;15.514;2023-07-13T01:04:12;96267.81;;;21.74;59.70
10992;BME280;5549;47.028;15.514;2023-07-13T01:06:41;96255.28;;;21.55;60.85
10992;BME280;5549;47.028;15.514;2023-07-13T01:09:11;96254.25;;;21.56;60.79
10992;BME280;5549;47.028;15.514;2023-07-13T01:11:41;96256.09;;;21.68;60.29
10992;BME280;5549;47.028;15.514;2023-07-13T01:14:14;96255.06;;;21.56;60.20
10992;BME280;5549;47.028;15.514;2023-07-13T01:16:47;96288.38;;;21.54;60.04
10992;BME280;5549;47.028;15.514;2023-07-13T01:19:28;96302.34;;;21.69;59.41
10992;BME280;5549;47.028;15.514;2023-07-13T01:22:09;96316.34;;;21.84;59.11
10992;BME280;5549;47.028;15.514;2023-07-13T01:24:40;96334.44;;;21.95;59.31
10992;BME280;5549;47.028;15.514;2023-07-13T01:27:14;96359.56;;;22.21;58.80
10992;BME280;5549;47.028;15.514;2023-07-13T01:29:44;96373.56;;;22.36;59.70
10992;BME280;5549;47.028;15.514;2023-07-13T01:32:19;96348.66;;;22.16;62.54
10992;BME280;5549;47.028;15.514;2023-07-13T01:34:51;96336.94;;;22.03;63.45
10992;BME280;5549;47.028;15.514;2023-07-13T01:37:25;96363.91;;;22.08;63.84
10992;BME280;5549;47.028;15.514;2023-07-13T01:39:53;96394.97;;;22.16;65.47
10992;BME280;5549;47.028;15.514;2023-07-13T01:42:21;96410.53;;;21.86;68.06
10992;BME280;5549;47.028;15.514;2023-07-13T01:44:51;96415.78;;;21.53;69.14
10992;BME280;5549;47.028;15.514;2023-07-13T01:47:18;96439.19;;;21.44;69.83
10992;BME280;5549;47.028;15.514;2023-07-13T01:49:46;96484.66;;;21.58;71.22
10992;BME280;5549;47.028;15.514;2023-07-13T01:52:16;96528.81;;;21.47;72.06
10992;BME280;5549;47.028;15.514;2023-07-13T01:54:47;96599.56;;;21.02;74.71
10992;BME280;5549;47.028;15.514;2023-07-13T01:57:17;96654.63;;;20.81;78.28
10992;BME280;5549;47.028;15.514;2023-07-13T01:59:47;96732.06;;;20.23;82.98
10992;BME280;5549;47.028;15.514;2023-07-13T02:02:17;96776.09;;;19.89;86.18
10992;BME280;5549;47.028;15.514;2023-07-13T02:04:45;96797.75;;;19.71;87.74
10992;BME280;5549;47.028;15.514;2023-07-13T02:07:15;96804.28;;;19.69;87.26
10992;BME280;5549;47.028;15.514;2023-07-13T02:09:46;96806.66;;;19.64;88.60
10992;BME280;5549;47.028;15.514;2023-07-13T02:12:14;96801.31;;;19.64;88.91
10992;BME280;5549;47.028;15.514;2023-07-13T02:14:42;96808.13;;;19.66;89.41
10992;BME280;5549;47.028;15.514;2023-07-13T02:17:10;96807.13;;;19.67;89.87
10992;BME280;5549;47.028;15.514;2023-07-13T02:19:40;96792.72;;;19.76;89.59
10992;BME280;5549;47.028;15.514;2023-07-13T02:22:10;96795.47;;;19.83;89.45
10992;BME280;5549;47.028;15.514;2023-07-13T02:24:38;96762.78;;;19.89;88.55
10992;BME280;5549;47.028;15.514;2023-07-13T02:27:08;96755.50;;;19.98;87.83
10992;BME280;5549;47.028;15.514;2023-07-13T02:29:38;96723.16;;;20.01;87.76
10992;BME280;5549;47.028;15.514;2023-07-13T02:32:12;96686.41;;;19.81;89.58
10992;BME280;5549;47.028;15.514;2023-07-13T02:34:41;96628.59;;;19.52;92.40
10992;BME280;5549;47.028;15.514;2023-07-13T02:37:11;96590.56;;;19.59;92.28
10992;BME280;5549;47.028;15.514;2023-07-13T02:39:42;96543.06;;;19.47;92.68
10992;BME280;5549;47.028;15.514;2023-07-13T02:42:11;96506.78;;;19.17;93.97
10992;BME280;5549;47.028;15.514;2023-07-13T02:44:38;96476.69;;;19.31;93.27
10992;BME280;5549;47.028;15.514;2023-07-13T02:47:08;96443.72;;;19.17;94.20
10992;BME280;5549;47.028;15.514;2023-07-13T02:49:38;96450.16;;;19.08;94.00
10992;BME280;5549;47.028;15.514;2023-07-13T02:52:08;96433.28;;;19.16;93.74
10992;BME280;5549;47.028;15.514;2023-07-13T02:54:35;96412.78;;;19.02;94.28
10992;BME280;5549;47.028;15.514;2023-07-13T02:57:06;96410.31;;;18.85;95.82
10992;BME280;5549;47.028;15.514;2023-07-13T02:59:35;96436.09;;;19.00;94.36
10992;BME280;5549;47.028;15.514;2023-07-13T03:02:03;96471.25;;;18.95;94.15
10992;BME280;5549;47.028;15.514;2023-07-13T03:04:35;96511.13;;;19.18;93.96
10992;BME280;5549;47.028;15.514;2023-07-13T03:07:06;96555.28;;;18.89;95.92
10992;BME280;5549;47.028;15.514;2023-07-13T03:09:37;96595.22;;;18.89;95.76
10992;BME280;5549;47.028;15.514;2023-07-13T03:12:08;96634.81;;;19.45;92.48
10992;BME280;5549;47.028;15.514;2023-07-13T03:14:47;96679.97;;;19.76;91.98
10992;BME280;5549;47.028;15.514;2023-07-13T03:17:17;96695.22;;;19.82;92.41
10992;BME280;5549;47.028;15.514;2023-07-13T03:19:45;96677.03;;;19.85;92.13
10992;BME280;5549;47.028;15.514;2023-07-13T03:22:15;96674.53;;;19.84;92.31
10992;BME280;5549;47.028;15.514;2023-07-13T03:24:43;96660.38;;;19.83;92.63
10992;BME280;5549;47.028;15.514;2023-07-13T03:27:10;96634.47;;;19.92;91.80
10992;BME280;5549;47.028;15.514;2023-07-13T03:29:40;96620.88;;;19.87;92.16
10992;BME280;5549;47.028;15.514;2023-07-13T03:32:12;96593.38;;;20.01;91.06
10992;BME280;5549;47.028;15.514;2023-07-13T03:34:42;96527.69;;;19.79;91.79
10992;BME280;5549;47.028;15.514;2023-07-13T03:37:12;96439.97;;;19.12;97.35
10992;BME280;5549;47.028;15.514;2023-07-13T03:39:40;96325.19;;;18.71;100.00
10992;BME280;5549;47.028;15.514;2023-07-13T03:42:08;96282.34;;;18.80;100.00
10992;BME280;5549;47.028;15.514;2023-07-13T03:44:40;96229.63;;;18.54;100.00
10992;BME280;5549;47.028;15.514;2023-07-13T03:47:08;96216.91;;;18.86;100.00
10992;BME280;5549;47.028;15.514;2023-07-13T03:49:39;96214.44;;;18.84;99.86
10992;BME280;5549;47.028;15.514;2023-07-13T03:52:10;96221.00;;;18.67;100.00
10992;BME280;5549;47.028;15.514;2023-07-13T03:54:39;96248.22;;;19.05;98.53
10992;BME280;5549;47.028;15.514;2023-07-13T03:57:08;96268.22;;;19.37;96.43
10992;BME280;5549;47.028;15.514;2023-07-13T03:59:36;96305.34;;;19.60;94.72
10992;BME280;5549;47.028;15.514;2023-07-13T04:02:04;96351.72;;;19.66;94.65
10992;BME280;5549;47.028;15.514;2023-07-13T04:04:32;96385.84;;;19.77;94.73
10992;BME280;5549;47.028;15.514;2023-07-13T04:07:01;96390.84;;;19.86;94.64
10992;BME280;5549;47.028;15.514;2023-07-13T04:09:31;96405.25;;;19.92;93.90
10992;BME280;5549;47.028;15.514;2023-07-13T04:12:01;96417.38;;;19.95;93.26
10992;BME280;5549;47.028;15.514;2023-07-13T04:14:31;96430.81;;;20.08;92.21
10992;BME280;5549;47.028;15.514;2023-07-13T04:17:01;96447.31;;;19.97;93.32
10992;BME280;5549;47.028;15.514;2023-07-13T04:19:28;96456.00;;;19.84;94.59
10992;BME280;5549;47.028;15.514;2023-07-13T04:21:56;96472.63;;;19.86;94.72
10992;BME280;5549;47.028;15.514;2023-07-13T04:24:27;96478.09;;;19.78;95.18
10992;BME280;5549;47.028;15.514;2023-07-13T04:26:57;96484.94;;;19.87;94.95
10992;BME280;5549;47.028;15.514;2023-07-13T04:29:28;96485.50;;;19.82;95.08
10992;BME280;5549;47.028;15.514;2023-07-13T04:31:58;96490.03;;;19.82;95.11
10992;BME280;5549;47.028;15.514;2023-07-13T04:34:25;96491.03;;;19.81;94.97
10992;BME280;5549;47.028;15.514;2023-07-13T04:36:55;96490.03;;;19.82;94.77
10992;BME280;5549;47.028;15.514;2023-07-13T04:39:23;96493.97;;;19.86;94.81
10992;BME280;5549;47.028;15.514;2023-07-13T04:41:54;96500.44;;;19.98;94.46
10992;BME280;5549;47.028;15.514;2023-07-13T04:44:22;96501.28;;;19.99;94.23
10992;BME280;5549;47.028;15.514;2023-07-13T04:46:49;96497.97;;;19.97;94.84
10992;BME280;5549;47.028;15.514;2023-07-13T04:49:19;96492.19;;;19.93;95.11
10992;BME280;5549;47.028;15.514;2023-07-13T04:51:49;96490.16;;;19.95;95.42
10992;BME280;5549;47.028;15.514;2023-07-13T04:54:17;96499.69;;;20.04;94.97
10992;BME280;5549;47.028;15.514;2023-07-13T04:56:45;96489.91;;;20.11;94.18
10992;BME280;5549;47.028;15.514;2023-07-13T04:59:13;96501.09;;;20.22;93.76
10992;BME280;5549;47.028;15.514;2023-07-13T05:01:41;96497.78;;;20.19;93.64
10992;BME280;5549;47.028;15.514;2023-07-13T05:04:09;96499.81;;;20.17;92.98
10992;BME280;5549;47.028;15.514;2023-07-13T05:06:36;96502.38;;;20.26;92.11
10992;BME280;5549;47.028;15.514;2023-07-13T05:09:04;96487.88;;;20.35;91.31
10992;BME280;5549;47.028;15.514;2023-07-13T05:11:33;96490.56;;;20.35;91.42
10992;BME280;5549;47.028;15.514;2023-07-13T05:14:01;96483.56;;;20.34;90.76
10992;BME280;5549;47.028;15.514;2023-07-13T05:16:31;96484.97;;;20.51;90.49
10992;BME280;5549;47.028;15.514;2023-07-13T05:18:59;96478.88;;;20.57;89.62
10992;BME280;5549;47.028;15.514;2023-07-13T05:21:26;96469.13;;;20.71;89.36
10992;BME280;5549;47.028;15.514;2023-07-13T05:23:56;96476.59;;;20.54;91.11
10992;BME280;5549;47.028;15.514;2023-07-13T05:26:26;96473.19;;;20.67;90.51
10992;BME280;5549;47.028;15.514;2023-07-13T05:28:54;96478.72;;;20.87;89.92
10992;BME280;5549;47.028;15.514;2023-07-13T05:31:21;96474.72;;;21.04;88.72
10992;BME280;5549;47.028;15.514;2023-07-13T05:33:52;96482.38;;;21.13;88.38
10992;BME280;5549;47.028;15.514;2023-07-13T05:36:20;96475.72;;;21.03;88.86
10992;BME280;5549;47.028;15.514;2023-07-13T05:38:47;96471.91;;;21.19;88.10
10992;BME280;5549;47.028;15.514;2023-07-13T05:41:15;96473.53;;;21.13;89.77
10992;BME280;5549;47.028;15.514;2023-07-13T05:43:42;96471.81;;;20.99;90.06
10992;BME280;5549;47.028;15.514;2023-07-13T05:46:12;96474.06;;;21.30;88.20
10992;BME280;5549;47.028;15.514;2023-07-13T05:48:42;96467.78;;;21.51;87.10
10992;BME280;5549;47.028;15.514;2023-07-13T05:51:11;96471.31;;;21.58;85.98
10992;BME280;5549;47.028;15.514;2023-07-13T05:53:39;96469.50;;;21.65;86.96
10992;BME280;5549;47.028;15.514;2023-07-13T05:56:08;96483.06;;;21.70;88.11
10992;BME280;5549;47.028;15.514;2023-07-13T05:58:35;96492.50;;;21.66;87.13
10992;BME280;5549;47.028;15.514;2023-07-13T06:01:10;96505.53;;;21.82;86.81
10992;BME280;5549;47.028;15.514;2023-07-13T06:03:40;96493.53;;;21.65;88.75
10992;BME280;5549;47.028;15.514;2023-07-13T06:06:11;96505.13;;;21.85;88.58
10992;BME280;5549;47.028;15.514;2023-07-13T06:08:38;96499.03;;;22.04;86.70
10992;BME280;5549;47.028;15.514;2023-07-13T06:11:12;96493.13;;;22.22;86.88
10992;BME280;5549;47.028;15.514;2023-07-13T06:13:40;96490.06;;;22.52;86.95
10992;BME280;5549;47.028;15.514;2023-07-13T06:16:12;96506.94;;;22.46;86.92
10992;BME280;5549;47.028;15.514;2023-07-13T06:18:40;96516.47;;;22.81;83.88
10992;BME280;5549;47.028;15.514;2023-07-13T06:21:11;96512.97;;;22.94;84.12
10992;BME280;5549;47.028;15.514;2023-07-13T06:23:39;96513.13;;;23.19;83.73
10992;BME280;5549;47.028;15.514;2023-07-13T06:26:10;96514.50;;;23.48;82.19
10992;BME280;5549;47.028;15.514;2023-07-13T06:28:40;96510.13;;;23.73;80.35
10992;BME280;5549;47.028;15.514;2023-07-13T06:31:09;96507.31;;;23.99;79.28
10992;BME280;5549;47.028;15.514;2023-07-13T06:33:38;96502.91;;;24.12;76.99
10992;BME280;5549;47.028;15.514;2023-07-13T06:36:08;96500.34;;;24.37;77.02
10992;BME280;5549;47.028;15.514;2023-07-13T06:38:39;96504.31;;;24.59;75.85
10992;BME280;5549;47.028;15.514;2023-07-13T06:41:07;96493.41;;;24.79;74.41
10992;BME280;5549;47.028;15.514;2023-07-13T06:43:35;96497.03;;;24.91;72.97
10992;BME280;5549;47.028;15.514;2023-07-13T06:46:05;96491.28;;;24.62;68.41
10992;BME280;5549;47.028;15.514;2023-07-13T06:48:33;96494.34;;;24.91;70.70
10992;BME280;5549;47.028;15.514;2023-07-13T06:51:02;96504.28;;;25.15;70.21
10992;BME280;5549;47.028;15.514;2023-07-13T06:53:30;96500.56;;;25.35;70.15
10992;BME280;5549;47.028;15.514;2023-07-13T06:56:01;96512.97;;;25.54;69.68
10992;BME280;5549;47.028;15.514;2023-07-13T06:58:31;96513.25;;;25.64;67.92
10992;BME280;5549;47.028;15.514;2023-07-13T07:01:01;96512.69;;;25.80;68.29
10992;BME280;5549;47.028;15.514;2023-07-13T07:03:30;96508.09;;;25.99;68.23
10992;BME280;5549;47.028;15.514;2023-07-13T07:06:01;96513.09;;;26.14;67.83
10992;BME280;5549;47.028;15.514;2023-07-13T07:08:29;96516.41;;;25.98;64.78
10992;BME280;5549;47.028;15.514;2023-07-13T07:10:57;96513.84;;;26.21;66.43
10992;BME280;5549;47.028;15.514;2023-07-13T07:13:28;96524.00;;;26.37;65.50
10992;BME280;5549;47.028;15.514;2023-07-13T07:15:56;96522.13;;;26.38;65.84
10992;BME280;5549;47.028;15.514;2023-07-13T07:18:29;96520.31;;;26.62;66.53
10992;BME280;5549;47.028;15.514;2023-07-13T07:20:57;96530.63;;;26.65;62.96
10992;BME280;5549;47.028;15.514;2023-07-13T07:23:31;96515.78;;;26.32;60.98
10992;BME280;5549;47.028;15.514;2023-07-13T07:26:02;96518.75;;;26.42;62.89
10992;BME280;5549;47.028;15.514;2023-07-13T07:28:33;96518.47;;;26.74;63.36
10992;BME280;5549;47.028;15.514;2023-07-13T07:31:03;96509.69;;;26.78;61.82
10992;BME280;5549;47.028;15.514;2023-07-13T07:33:33;96515.19;;;26.83;62.05
10992;BME280;5549;47.028;15.514;2023-07-13T07:36:03;96515.31;;;26.77;61.07
10992;BME280;5549;47.028;15.514;2023-07-13T07:38:31;96507.22;;;26.77;60.93
10992;BME280;5549;47.028;15.514;2023-07-13T07:41:01;96507.00;;;26.78;60.54
10992;BME280;5549;47.028;15.514;2023-07-13T07:43:29;96512.94;;;26.69;58.02
10992;BME280;5549;47.028;15.514;2023-07-13T07:45:59;96514.22;;;26.55;58.31
10992;BME280;5549;47.028;15.514;2023-07-13T07:48:29;96502.53;;;26.72;60.66
10992;BME280;5549;47.028;15.514;2023-07-13T07:50:58;96494.06;;;26.27;56.86
10992;BME280;5549;47.028;15.514;2023-07-13T07:53:26;96491.09;;;26.35;56.26
10992;BME280;5549;47.028;15.514;2023-07-13T07:55:56;96504.34;;;26.48;57.02
10992;BME280;5549;47.028;15.514;2023-07-13T07:58:24;96518.00;;;26.77;59.59
10992;BME280;5549;47.028;15.514;2023-07-13T08:00:51;96533.72;;;26.92;60.69
10992;BME280;5549;47.028;15.514;2023-07-13T08:03:20;96534.59;;;27.04;59.95
10992;BME280;5549;47.028;15.514;2023-07-13T08:05:48;96533.41;;;27.00;59.94
10992;BME280;5549;47.028;15.514;2023-07-13T08:08:15;96524.38;;;27.17;60.75
10992;BME280;5549;47.028;15.514;2023-07-13T08:10:45;96530.97;;;27.22;60.11
10992;BME280;5549;47.028;15.514;2023-07-13T08:13:13;96532.13;;;27.26;58.71
10992;BME280;5549;47.028;15.514;2023-07-13T08:15:43;96522.88;;;27.22;58.65
10992;BME280;5549;47.028;15.514;2023-07-13T08:18:13;96522.16;;;27.49;58.99
10992;BME280;5549;47.028;15.514;2023-07-13T08:20:45;96520.97;;;27.45;57.11
10992;BME280;5549;47.028;15.514;2023-07-13T08:23:13;96520.72;;;27.59;58.98
10992;BME280;5549;47.028;15.514;2023-07-13T08:25:42;96522.16;;;27.61;57.15
10992;BME280;5549;47.028;15.514;2023-07-13T08:28:10;96515.72;;;27.62;58.88
10992;BME280;5549;47.028;15.514;2023-07-13T08:30:37;96507.72;;;27.67;58.97
10992;BME280;5549;47.028;15.514;2023-07-13T08:33:05;96498.38;;;27.23;62.66
10992;BME280;5549;47.028;15.514;2023-07-13T08:35:32;96512.28;;;26.97;63.42
10992;BME280;5549;47.028;15.514;2023-07-13T08:38:01;96513.25;;;27.02;61.76
10992;BME280;5549;47.028;15.514;2023-07-13T08:40:29;96516.19;;;27.36;60.30
10992;BME280;5549;47.028;15.514;2023-07-13T08:42:58;96513.81;;;27.51;55.13
10992;BME280;5549;47.028;15.514;2023-07-13T08:45:30;96511.69;;;27.53;53.79
10992;BME280;5549;47.028;15.514;2023-07-13T08:48:11;96508.56;;;27.44;58.00
10992;BME280;5549;47.028;15.514;2023-07-13T08:50:55;96523.44;;;27.70;56.07
10992;BME280;5549;47.028;15.514;2023-07-13T08:53:34;96523.44;;;27.70;53.29
10992;BME280;5549;47.028;15.514;2023-07-13T08:56:05;96515.69;;;27.86;55.51
10992;BME280;5549;47.028;15.514;2023-07-13T08:58:37;96514.75;;;27.45;56.11
10992;BME280;5549;47.028;15.514;2023-07-13T09:01:15;96506.06;;;27.90;50.28
10992;BME280;5549;47.028;15.514;2023-07-13T09:03:56;96515.13;;;28.12;53.70
10992;BME280;5549;47.028;15.514;2023-07-13T09:06:40;96506.66;;;28.20;53.94
10992;BME280;5549;47.028;15.514;2023-07-13T09:09:24;96503.78;;;28.38;53.30
10992;BME280;5549;47.028;15.514;2023-07-13T09:12:07;96495.56;;;28.33;53.20
10992;BME280;5549;47.028;15.514;2023-07-13T09:14:45;96496.13;;;28.07;53.09
10992;BME280;5549;47.028;15.514;2023-07-13T09:17:19;96506.88;;;28.19;49.94
10992;BME280;5549;47.028;15.514;2023-07-13T09:19:55;96509.72;;;28.69;50.98
10992;BME280;5549;47.028;15.514;2023-07-13T09:22:25;96496.78;;;28.71;50.36
10992;BME280;5549;47.028;15.514;2023-07-13T09:25:04;96501.69;;;28.74;49.87
10992;BME280;5549;47.028;15.514;2023-07-13T09:27:38;96520.88;;;29.23;49.85
10992;BME280;5549;47.028;15.514;2023-07-13T09:30:30;96512.59;;;29.46;47.74
10992;BME280;5549;47.028;15.514;2023-07-13T09:33:00;96516.25;;;29.40;45.09
10992;BME280;5549;47.028;15.514;2023-07-13T09:35:30;96508.00;;;29.30;45.46
10992;BME280;5549;47.028;15.514;2023-07-13T09:38:11;96511.25;;;28.65;45.34
10992;BME280;5549;47.028;15.514;2023-07-13T09:40:58;96519.25;;;28.88;45.87
10992;BME280;5549;47.028;15.514;2023-07-13T09:43:30;96504.81;;;28.99;41.98
10992;BME280;5549;47.028;15.514;2023-07-13T09:45:58;96503.06;;;29.44;45.13
10992;BME280;5549;47.028;15.514;2023-07-13T09:48:35;96500.13;;;29.45;44.20
10992;BME280;5549;47.028;15.514;2023-07-13T09:51:14;96503.00;;;29.55;43.71
10992;BME280;5549;47.028;15.514;2023-07-13T09:53:44;96501.56;;;29.69;43.15
10992;BME280;5549;47.028;15.514;2023-07-13T09:56:24;96505.34;;;29.90;44.59
10992;BME280;5549;47.028;15.514;2023-07-13T09:58:54;96509.75;;;30.18;41.03
10992;BME280;5549;47.028;15.514;2023-07-13T10:01:35;96508.34;;;30.38;41.57
10992;BME280;5549;47.028;15.514;2023-07-13T10:04:11;96514.09;;;30.19;43.41
10992;BME280;5549;47.028;15.514;2023-07-13T10:06:40;96506.44;;;30.38;43.90
10992;BME280;5549;47.028;15.514;2023-07-13T10:09:16;96507.06;;;30.72;43.01
10992;BME280;5549;47.028;15.514;2023-07-13T10:11:46;96501.66;;;30.72;43.45
10992;BME280;5549;47.028;15.514;2023-07-13T10:14:18;96516.00;;;30.46;39.15
10992;BME280;5549;47.028;15.514;2023-07-13T10:16:52;96510.19;;;29.66;41.12
10992;BME280;5549;47.028;15.514;2023-07-13T10:19:27;96508.72;;;30.24;37.81
10992;BME280;5549;47.028;15.514;2023-07-13T10:22:00;96501.94;;;30.49;40.54
10992;BME280;5549;47.028;15.514;2023-07-13T10:24:30;96496.03;;;30.84;43.53
10992;BME280;5549;47.028;15.514;2023-07-13T10:27:10;96492.16;;;31.07;40.64
10992;BME280;5549;47.028;15.514;2023-07-13T10:29:45;96495.41;;;31.09;40.95
10992;BME280;5549;47.028;15.514;2023-07-13T10:32:16;96492.41;;;31.37;41.35
10992;BME280;5549;47.028;15.514;2023-07-13T10:34:49;96493.22;;;31.38;36.86
10992;BME280;5549;47.028;15.514;2023-07-13T10:37:26;96496.91;;;31.64;39.69
10992;BME280;5549;47.028;15.514;2023-07-13T10:39:56;96497.13;;;31.52;36.07
10992;BME280;5549;47.028;15.514;2023-07-13T10:42:30;96495.88;;;31.70;36.67
10992;BME280;5549;47.028;15.514;2023-07-13T10:45:00;96488.38;;;31.92;34.58
10992;BME280;5549;47.028;15.514;2023-07-13T10:47:27;96498.44;;;32.02;35.66
10992;BME280;5549;47.028;15.514;2023-07-13T10:49:58;96490.59;;;32.05;35.10
10992;BME280;5549;47.028;15.514;2023-07-13T10:52:52;96496.03;;;32.10;36.62
10992;BME280;5549;47.028;15.514;2023-07-13T10:55:38;96496.59;;;32.12;37.11
10992;BME280;5549;47.028;15.514;2023-07-13T10:58:15;96501.47;;;32.10;35.01
10992;BME280;5549;47.028;15.514;2023-07-13T11:00:53;96505.69;;;31.76;36.46
10992;BME280;5549;47.028;15.514;2023-07-13T11:03:24;96498.09;;;31.78;34.16
10992;BME280;5549;47.028;15.514;2023-07-13T11:06:09;96499.81;;;31.99;32.74
10992;BME280;5549;47.028;15.514;2023-07-13T11:08:52;96493.25;;;31.90;35.82
10992;BME280;5549;47.028;15.514;2023-07-13T11:11:38;96471.03;;;32.03;36.39
10992;BME280;5549;47.028;15.514;2023-07-13T11:14:29;96479.66;;;31.90;37.22
10992;BME280;5549;47.028;15.514;2023-07-13T11:16:59;96477.34;;;31.62;36.39
10992;BME280;5549;47.028;15.514;2023-07-13T11:19:51;96478.91;;;31.47;36.78
10992;BME280;5549;47.028;15.514;2023-07-13T11:22:25;96490.31;;;31.49;36.54
10992;BME280;5549;47.028;15.514;2023-07-13T11:25:28;96483.16;;;31.80;32.65
10992;BME280;5549;47.028;15.514;2023-07-13T11:28:16;96475.25;;;31.74;35.54
10992;BME280;5549;47.028;15.514;2023-07-13T11:30:47;96473.03;;;31.66;38.57
10992;BME280;5549;47.028;15.514;2023-07-13T11:33:21;96463.66;;;31.41;41.96
10992;BME280;5549;47.028;15.514;2023-07-13T11:35:58;96464.56;;;31.15;42.89
10992;BME280;5549;47.028;15.514;2023-07-13T11:38:34;96474.97;;;31.23;42.39
10992;BME280;5549;47.028;15.514;2023-07-13T11:41:06;96471.69;;;31.21;42.25
10992;BME280;5549;47.028;15.514;2023-07-13T11:43:34;96470.56;;;31.17;42.87
10992;BME280;5549;47.028;15.514;2023-07-13T11:46:20;96468.59;;;30.75;44.20
10992;BME280;5549;47.028;15.514;2023-07-13T11:48:51;96477.50;;;30.44;42.53
10992;BME280;5549;47.028;15.514;2023-07-13T11:51:33;96485.63;;;29.95;43.25
10992;BME280;5549;47.028;15.514;2023-07-13T11:54:05;96499.50;;;29.77;45.11
10992;BME280;5549;47.028;15.514;2023-07-13T11:56:33;96494.25;;;29.48;46.86
10992;BME280;5549;47.028;15.514;2023-07-13T11:59:11;96488.88;;;29.36;45.92
10992;BME280;5549;47.028;15.514;2023-07-13T12:01:45;96479.38;;;29.34;46.37
10992;BME280;5549;47.028;15.514;2023-07-13T12:04:22;96479.31;;;29.29;49.85
10992;BME280;5549;47.028;15.514;2023-07-13T12:06:58;96471.72;;;29.09;46.63
10992;BME280;5549;47.028;15.514;2023-07-13T12:09:30;96460.22;;;29.19;47.99
10992;BME280;5549;47.028;15.514;2023-07-13T12:11:58;96453.88;;;29.30;47.07
10992;BME280;5549;47.028;15.514;2023-07-13T12:14:29;96441.50;;;29.51;48.61
10992;BME280;5549;47.028;15.514;2023-07-13T12:17:04;96442.84;;;29.48;46.03
10992;BME280;5549;47.028;15.514;2023-07-13T12:19:36;96449.88;;;29.32;47.89
10992;BME280;5549;47.028;15.514;2023-07-13T12:22:04;96459.66;;;29.17;49.07
10992;BME280;5549;47.028;15.514;2023-07-13T12:24:35;96452.31;;;29.34;49.25
10992;BME280;5549;47.028;15.514;2023-07-13T12:27:05;96463.47;;;28.99;49.39
10992;BME280;5549;47.028;15.514;2023-07-13T12:29:33;96462.22;;;29.06;50.21
10992;BME280;5549;47.028;15.514;2023-07-13T12:32:02;96467.78;;;28.50;51.14
10992;BME280;5549;47.028;15.514;2023-07-13T12:34:52;96459.66;;;28.33;51.95
10992;BME280;5549;47.028;15.514;2023-07-13T12:37:23;96464.03;;;27.94;52.43
10992;BME280;5549;47.028;15.514;2023-07-13T12:39:53;96459.41;;;28.06;52.56
10992;BME280;5549;47.028;15.514;2023-07-13T12:42:24;96457.47;;;27.90;54.12
10992;BME280;5549;47.028;15.514;2023-07-13T12:44:59;96446.06;;;27.36;54.15
10992;BME280;5549;47.028;15.514;2023-07-13T12:47:29;96461.31;;;27.30;53.47
10992;BME280;5549;47.028;15.514;2023-07-13T12:50:03;96466.69;;;26.95;56.06
10992;BME280;5549;47.028;15.514;2023-07-13T12:52:35;96480.16;;;26.83;58.22
10992;BME280;5549;47.028;15.514;2023-07-13T12:55:09;96491.72;;;26.49;58.28
10992;BME280;5549;47.028;15.514;2023-07-13T12:57:41;96492.88;;;26.41;58.33
10992;BME280;5549;47.028;15.514;2023-07-13T13:00:23;96497.78;;;26.44;58.39
10992;BME280;5549;47.028;15.514;2023-07-13T13:02:57;96498.00;;;26.13;59.51
10992;BME280;5549;47.028;15.514;2023-07-13T13:05:27;96508.09;;;26.17;59.50
10992;BME280;5549;47.028;15.514;2023-07-13T13:07:54;96510.00;;;26.29;59.70
10992;BME280;5549;47.028;15.514;2023-07-13T13:10:22;96508.31;;;25.98;59.98
10992;BME280;5549;47.028;15.514;2023-07-13T13:12:52;96508.72;;;26.01;59.54
10992;BME280;5549;47.028;15.514;2023-07-13T13:15:20;96514.47;;;25.68;60.53
10992;BME280;5549;47.028;15.514;2023-07-13T13:17:51;96532.09;;;25.64;60.69
10992;BME280;5549;47.028;15.514;2023-07-13T13:20:22;96544.94;;;25.62;61.48
10992;BME280;5549;47.028;15.514;2023-07-13T13:22:52;96549.66;;;25.23;63.16